Aérodrome :
LOGIN :

S'inscrire | Disclaimer

   EN    FR    IT 

 










Légende :    VFR   VFR Marginal   IFR   IFR Intensif   IFR Très Intensif
Visi : 
Plafond : 
>= 8 km
>= 3000ft
5 à 8 km
1000 à 3000 ft
1500m à 5 km
500 à 1000 ft
800 à 1500m
200 à 500 ft
< 800m
< 200 ft
Symboles :   Orages  Brouillard  Fortes neiges  Fortes précipitations  Vent > 20 kt
SIGMETs :   Divers  Orages  Givrage  Turbulence  Onde Orograph.  Cendres Volcan.






- Altitude de l'aérodrome : 523 ft
- Code IATA : AUF


LFLA - Auxerre

DERNIER METAR :
  • 220930Z AUTO 22009KT 190V250 9999 BKN017 OVC023 16/14 Q1016

METARs EXPIRÉS :
  • 220900Z AUTO 21006KT 170V240 9999 OVC018 15/13 Q1016
  • 220830Z AUTO 18006KT 9999 SCT017/// BKN022/// OVC029/// ///TCU 14/13 Q1016
  • 220800Z AUTO 20006KT 160V240 9999 BKN017/// BKN023/// BKN033/// ///TCU 14/13 Q1016
  • 220730Z AUTO 19007KT 9999 BKN013 BKN028 OVC041 14/13 Q1016
  • 220700Z AUTO 15004KT 110V180 9999 BKN043 OVC049 13/12 Q1017
  • 220630Z AUTO 19004KT 160V250 CAVOK 13/12 Q1017
  • 220600Z AUTO 23006KT 180V260 CAVOK 13/12 Q1017
  • 220530Z AUTO 23006KT 9999 -RA SCT027 BKN034 BKN050 12/11 Q1017
  • 220500Z AUTO 24011KT 200V260 9999 -RA SCT010/// BKN015/// BKN021/// ///TCU 12/11 Q1017

TAF N/A



MET'MAP, la Météo Aéronautique d'un coup d'oeil ! - Copyright ORBIFLY Décembre 2007 - Disclaimer

ORBIFLY MET'MAP TEAM :

Programmation & Développement : Alexandra Zaïnal
Sur une idée originale de : Baudouin d'Aumeries
Soutien technique & logistique : Manuel Goepfert
Assistance : Marc-Olivier Méhu




SOURCES & CREDITS :

   NOAA